Terminal Aerodrome Forecast
Issued by NWS Amarillo, TX

Home | Current Version | Previous Version | Text Only | Print | Product List | Glossary On
Versions: 1 2 3 4 5 6 7 8 9 10 11 12 13 14 15 16 17 18 19 20 21 22
000
FTUS44 KAMA 270144 AAA
TAFDHT
TAF AMD
KDHT 270144Z 2702/2724 17010KT P6SM VCSH SCT060
      TEMPO 2705/2708 VRB20G30KT 3SM TSRA BKN050CB
     FM270800 17009KT P6SM SCT250
     FM271500 21016G25KT P6SM SKC=

USA.gov is the U.S. government's official web portal to all federal, state and local government web resources and services.